This is the latest recevied weather packets stored in our database for station/object Wangen. If no packets are shown the sender has not sent any weather packets the latest 10 day(s).
| Time | Temp. | Humidity | Pressure | Rain* | Wind** | Luminosity | Snow |
|---|---|---|---|---|---|---|---|
| 1777669330 | 14.44° C | 50% | 1022.1 hPa | 0 mm | - | - | - |
| 1777667529 | 15° C | 48% | 1022.1 hPa | 0 mm | - | - | - |
| 1777665732 | 15.56° C | 46% | 1022.1 hPa | 0 mm | - | - | - |
| 1777663929 | 17.22° C | 42% | 1021.8 hPa | 0 mm | - | - | - |
| 1777662130 | 18.33° C | 39% | 1021.7 hPa | 0 mm | - | - | - |
| 1777660331 | 19.44° C | 35% | 1021.4 hPa | 0 mm | - | - | - |
| 1777658531 | 20.56° C | 31% | 1021.3 hPa | 0 mm | - | - | - |
| 1777656731 | 21.67° C | 29% | 1021.3 hPa | 0 mm | - | - | - |
| 1777654930 | 21.67° C | 27% | 1021.3 hPa | 0 mm | - | - | - |
| 1777653130 | 22.22° C | 27% | 1021.5 hPa | 0 mm | - | - | - |
| 1777651330 | 23.33° C | 25% | 1021.6 hPa | 0 mm | - | - | - |
| 1777649530 | 23.33° C | 25% | 1021.9 hPa | 0 mm | - | - | - |
| 1777647730 | 22.78° C | 25% | 1022 hPa | 0 mm | - | - | - |
| 1777645930 | 23.33° C | 24% | 1022.3 hPa | 0 mm | - | - | - |
| 1777644130 | 22.22° C | 26% | 1022.5 hPa | 0 mm | - | - | - |
| 1777642330 | 22.22° C | 26% | 1022.8 hPa | 0 mm | - | - | - |
| 1777640531 | 21.67° C | 27% | 1023.1 hPa | 0 mm | - | - | - |
| 1777638736 | 21.11° C | 29% | 1023.4 hPa | 0 mm | - | - | - |
| 1777636931 | 20.56° C | 31% | 1023.5 hPa | 0 mm | - | - | - |
| 1777635130 | 20° C | 33% | 1023.8 hPa | 0 mm | - | - | - |
| 1777633331 | 18.33° C | 35% | 1024.2 hPa | 0 mm | - | - | - |
| 1777631531 | 17.22° C | 39% | 1024.6 hPa | 0 mm | - | - | - |
| 1777629731 | 16.67° C | 41% | 1024.8 hPa | 0 mm | - | - | - |
| 1777627931 | 16.67° C | 42% | 1024.8 hPa | 0 mm | - | - | - |
| 1777626132 | 16.11° C | 43% | 1025 hPa | 0 mm | - | - | - |
* Rain since midnight (hover to see other rain measurements)
** Current wind speed in m/s (hover to see current wind gust speed)